sensor_id;sensor_type;location;lat;lon;timestamp;P1;durP1;ratioP1;P2;durP2;ratioP2
37847;SDS011;23688;33.130;-117.188;2024-01-11T00:01:59;17.42;;;2.67;;
37847;SDS011;23688;33.130;-117.188;2024-01-11T00:04:27;13.13;;;3.37;;
37847;SDS011;23688;33.130;-117.188;2024-01-11T00:06:54;13.30;;;3.17;;
37847;SDS011;23688;33.130;-117.188;2024-01-11T00:09:20;15.65;;;2.38;;
37847;SDS011;23688;33.130;-117.188;2024-01-11T00:11:46;13.68;;;2.67;;
37847;SDS011;23688;33.130;-117.188;2024-01-11T00:14:12;10.55;;;2.17;;
37847;SDS011;23688;33.130;-117.188;2024-01-11T00:16:38;14.57;;;2.70;;
37847;SDS011;23688;33.130;-117.188;2024-01-11T00:19:07;12.45;;;2.60;;
37847;SDS011;23688;33.130;-117.188;2024-01-11T00:21:34;7.13;;;2.45;;
37847;SDS011;23688;33.130;-117.188;2024-01-11T00:24:01;13.13;;;2.92;;
37847;SDS011;23688;33.130;-117.188;2024-01-11T00:26:27;7.35;;;2.42;;
37847;SDS011;23688;33.130;-117.188;2024-01-11T00:28:53;7.57;;;2.42;;
37847;SDS011;23688;33.130;-117.188;2024-01-11T00:31:19;11.35;;;3.60;;
37847;SDS011;23688;33.130;-117.188;2024-01-11T00:33:46;12.50;;;3.22;;
37847;SDS011;23688;33.130;-117.188;2024-01-11T00:36:17;7.60;;;2.70;;
37847;SDS011;23688;33.130;-117.188;2024-01-11T00:38:45;11.65;;;3.28;;
37847;SDS011;23688;33.130;-117.188;2024-01-11T00:41:11;15.18;;;3.95;;
37847;SDS011;23688;33.130;-117.188;2024-01-11T00:43:41;12.35;;;3.10;;
37847;SDS011;23688;33.130;-117.188;2024-01-11T00:46:07;12.77;;;4.88;;
37847;SDS011;23688;33.130;-117.188;2024-01-11T00:48:33;9.88;;;2.70;;
37847;SDS011;23688;33.130;-117.188;2024-01-11T00:51:00;9.70;;;2.50;;
37847;SDS011;23688;33.130;-117.188;2024-01-11T00:53:26;10.93;;;3.30;;
37847;SDS011;23688;33.130;-117.188;2024-01-11T00:55:59;7.35;;;2.42;;
37847;SDS011;23688;33.130;-117.188;2024-01-11T00:58:25;7.65;;;3.33;;
37847;SDS011;23688;33.130;-117.188;2024-01-11T01:00:53;10.35;;;3.40;;
37847;SDS011;23688;33.130;-117.188;2024-01-11T01:03:20;12.02;;;4.28;;
37847;SDS011;23688;33.130;-117.188;2024-01-11T01:05:47;9.32;;;3.30;;
37847;SDS011;23688;33.130;-117.188;2024-01-11T01:08:13;7.55;;;3.35;;
37847;SDS011;23688;33.130;-117.188;2024-01-11T01:10:40;7.72;;;2.72;;
37847;SDS011;23688;33.130;-117.188;2024-01-11T01:13:06;14.50;;;3.03;;
37847;SDS011;23688;33.130;-117.188;2024-01-11T01:15:32;10.23;;;3.17;;
37847;SDS011;23688;33.130;-117.188;2024-01-11T01:17:58;9.57;;;3.13;;
37847;SDS011;23688;33.130;-117.188;2024-01-11T01:20:25;10.95;;;2.60;;
37847;SDS011;23688;33.130;-117.188;2024-01-11T01:22:51;13.32;;;3.83;;
37847;SDS011;23688;33.130;-117.188;2024-01-11T01:25:17;13.57;;;3.70;;
37847;SDS011;23688;33.130;-117.188;2024-01-11T01:27:43;8.13;;;2.80;;
37847;SDS011;23688;33.130;-117.188;2024-01-11T01:30:10;14.18;;;3.20;;
37847;SDS011;23688;33.130;-117.188;2024-01-11T01:32:36;8.35;;;3.10;;
37847;SDS011;23688;33.130;-117.188;2024-01-11T01:35:02;8.98;;;2.10;;
37847;SDS011;23688;33.130;-117.188;2024-01-11T01:37:29;3.20;;;1.75;;
37847;SDS011;23688;33.130;-117.188;2024-01-11T01:39:55;8.40;;;2.25;;
37847;SDS011;23688;33.130;-117.188;2024-01-11T01:42:21;9.88;;;2.13;;
37847;SDS011;23688;33.130;-117.188;2024-01-11T01:44:47;12.20;;;3.10;;
37847;SDS011;23688;33.130;-117.188;2024-01-11T01:47:14;12.38;;;3.53;;
37847;SDS011;23688;33.130;-117.188;2024-01-11T01:49:42;12.75;;;3.75;;
37847;SDS011;23688;33.130;-117.188;2024-01-11T01:52:10;8.53;;;2.43;;
37847;SDS011;23688;33.130;-117.188;2024-01-11T01:54:39;11.75;;;3.47;;
37847;SDS011;23688;33.130;-117.188;2024-01-11T01:57:06;13.85;;;2.97;;
37847;SDS011;23688;33.130;-117.188;2024-01-11T01:59:34;11.52;;;4.40;;
37847;SDS011;23688;33.130;-117.188;2024-01-11T02:02:03;13.40;;;5.25;;
37847;SDS011;23688;33.130;-117.188;2024-01-11T02:04:31;13.27;;;4.18;;
37847;SDS011;23688;33.130;-117.188;2024-01-11T02:06:58;8.50;;;3.55;;
37847;SDS011;23688;33.130;-117.188;2024-01-11T02:09:24;11.40;;;3.53;;
37847;SDS011;23688;33.130;-117.188;2024-01-11T02:14:20;10.00;;;3.03;;
37847;SDS011;23688;33.130;-117.188;2024-01-11T02:16:46;19.50;;;3.88;;
37847;SDS011;23688;33.130;-117.188;2024-01-11T02:19:13;8.43;;;2.58;;
37847;SDS011;23688;33.130;-117.188;2024-01-11T02:21:42;11.15;;;2.97;;
37847;SDS011;23688;33.130;-117.188;2024-01-11T02:24:09;13.50;;;2.58;;
37847;SDS011;23688;33.130;-117.188;2024-01-11T02:26:36;11.57;;;3.85;;
37847;SDS011;23688;33.130;-117.188;2024-01-11T02:29:02;9.75;;;2.53;;
37847;SDS011;23688;33.130;-117.188;2024-01-11T02:31:28;9.07;;;2.42;;
37847;SDS011;23688;33.130;-117.188;2024-01-11T02:33:55;5.90;;;2.65;;
37847;SDS011;23688;33.130;-117.188;2024-01-11T02:36:22;11.93;;;3.30;;
37847;SDS011;23688;33.130;-117.188;2024-01-11T02:38:48;11.55;;;3.03;;
37847;SDS011;23688;33.130;-117.188;2024-01-11T02:41:17;16.35;;;3.05;;
37847;SDS011;23688;33.130;-117.188;2024-01-11T02:43:47;11.65;;;3.00;;
37847;SDS011;23688;33.130;-117.188;2024-01-11T02:46:17;6.47;;;3.03;;
37847;SDS011;23688;33.130;-117.188;2024-01-11T02:48:43;7.70;;;2.88;;
37847;SDS011;23688;33.130;-117.188;2024-01-11T02:51:09;9.75;;;3.35;;
37847;SDS011;23688;33.130;-117.188;2024-01-11T02:53:36;10.50;;;2.67;;
37847;SDS011;23688;33.130;-117.188;2024-01-11T02:56:02;8.77;;;2.92;;
37847;SDS011;23688;33.130;-117.188;2024-01-11T02:58:29;9.80;;;2.65;;
37847;SDS011;23688;33.130;-117.188;2024-01-11T03:00:55;10.85;;;3.28;;
37847;SDS011;23688;33.130;-117.188;2024-01-11T03:03:21;9.90;;;2.92;;
37847;SDS011;23688;33.130;-117.188;2024-01-11T03:05:48;7.70;;;2.95;;
37847;SDS011;23688;33.130;-117.188;2024-01-11T03:08:15;20.10;;;4.53;;
37847;SDS011;23688;33.130;-117.188;2024-01-11T03:10:41;10.30;;;3.67;;
37847;SDS011;23688;33.130;-117.188;2024-01-11T03:13:07;10.75;;;2.80;;
37847;SDS011;23688;33.130;-117.188;2024-01-11T03:15:34;11.55;;;3.92;;
37847;SDS011;23688;33.130;-117.188;2024-01-11T03:18:00;12.75;;;3.40;;
37847;SDS011;23688;33.130;-117.188;2024-01-11T03:20:26;17.95;;;3.38;;
37847;SDS011;23688;33.130;-117.188;2024-01-11T03:22:53;12.30;;;3.40;;
37847;SDS011;23688;33.130;-117.188;2024-01-11T03:25:19;10.82;;;3.40;;
37847;SDS011;23688;33.130;-117.188;2024-01-11T03:27:45;16.48;;;3.78;;
37847;SDS011;23688;33.130;-117.188;2024-01-11T03:30:14;9.70;;;3.05;;
37847;SDS011;23688;33.130;-117.188;2024-01-11T03:32:41;13.90;;;3.60;;
37847;SDS011;23688;33.130;-117.188;2024-01-11T03:35:08;7.88;;;3.15;;
37847;SDS011;23688;33.130;-117.188;2024-01-11T03:37:35;12.50;;;3.05;;
37847;SDS011;23688;33.130;-117.188;2024-01-11T03:40:02;13.13;;;3.13;;
37847;SDS011;23688;33.130;-117.188;2024-01-11T03:42:29;12.95;;;2.92;;
37847;SDS011;23688;33.130;-117.188;2024-01-11T03:44:55;21.02;;;3.80;;
37847;SDS011;23688;33.130;-117.188;2024-01-11T03:47:21;10.13;;;3.70;;
37847;SDS011;23688;33.130;-117.188;2024-01-11T03:49:48;11.18;;;3.25;;
37847;SDS011;23688;33.130;-117.188;2024-01-11T03:52:14;9.35;;;3.05;;
37847;SDS011;23688;33.130;-117.188;2024-01-11T03:54:40;9.38;;;2.75;;
37847;SDS011;23688;33.130;-117.188;2024-01-11T03:57:07;11.13;;;4.10;;
37847;SDS011;23688;33.130;-117.188;2024-01-11T03:59:33;10.65;;;3.85;;
37847;SDS011;23688;33.130;-117.188;2024-01-11T04:02:00;10.00;;;3.85;;
37847;SDS011;23688;33.130;-117.188;2024-01-11T04:04:26;10.90;;;3.67;;
37847;SDS011;23688;33.130;-117.188;2024-01-11T04:06:53;16.80;;;4.10;;
37847;SDS011;23688;33.130;-117.188;2024-01-11T04:09:19;11.68;;;4.63;;
37847;SDS011;23688;33.130;-117.188;2024-01-11T04:11:45;15.30;;;4.38;;
37847;SDS011;23688;33.130;-117.188;2024-01-11T04:14:12;17.08;;;6.05;;
37847;SDS011;23688;33.130;-117.188;2024-01-11T04:16:44;15.25;;;5.80;;
37847;SDS011;23688;33.130;-117.188;2024-01-11T04:19:10;16.15;;;5.00;;
37847;SDS011;23688;33.130;-117.188;2024-01-11T04:21:37;16.13;;;5.45;;
37847;SDS011;23688;33.130;-117.188;2024-01-11T04:24:06;13.80;;;6.07;;
37847;SDS011;23688;33.130;-117.188;2024-01-11T04:26:33;25.73;;;6.00;;
37847;SDS011;23688;33.130;-117.188;2024-01-11T04:28:59;11.98;;;5.53;;
37847;SDS011;23688;33.130;-117.188;2024-01-11T04:31:26;16.38;;;5.07;;
37847;SDS011;23688;33.130;-117.188;2024-01-11T04:33:53;14.20;;;5.03;;
37847;SDS011;23688;33.130;-117.188;2024-01-11T04:36:19;16.10;;;4.97;;
37847;SDS011;23688;33.130;-117.188;2024-01-11T04:38:46;16.63;;;5.30;;
37847;SDS011;23688;33.130;-117.188;2024-01-11T04:41:12;15.45;;;4.22;;
37847;SDS011;23688;33.130;-117.188;2024-01-11T04:43:40;11.82;;;3.78;;
37847;SDS011;23688;33.130;-117.188;2024-01-11T04:46:17;9.90;;;3.87;;
37847;SDS011;23688;33.130;-117.188;2024-01-11T04:48:45;16.92;;;3.67;;
37847;SDS011;23688;33.130;-117.188;2024-01-11T04:51:12;14.10;;;3.10;;
37847;SDS011;23688;33.130;-117.188;2024-01-11T04:53:39;19.83;;;3.22;;
37847;SDS011;23688;33.130;-117.188;2024-01-11T04:56:07;12.20;;;3.03;;
37847;SDS011;23688;33.130;-117.188;2024-01-11T04:58:35;15.17;;;3.40;;
37847;SDS011;23688;33.130;-117.188;2024-01-11T05:01:03;9.68;;;3.33;;
37847;SDS011;23688;33.130;-117.188;2024-01-11T05:03:30;15.68;;;2.67;;
37847;SDS011;23688;33.130;-117.188;2024-01-11T05:05:57;12.88;;;3.03;;
37847;SDS011;23688;33.130;-117.188;2024-01-11T05:08:27;13.43;;;3.35;;
37847;SDS011;23688;33.130;-117.188;2024-01-11T05:10:53;12.88;;;2.47;;
37847;SDS011;23688;33.130;-117.188;2024-01-11T05:13:20;16.30;;;2.83;;
37847;SDS011;23688;33.130;-117.188;2024-01-11T05:15:47;13.95;;;3.28;;
37847;SDS011;23688;33.130;-117.188;2024-01-11T05:18:13;10.23;;;2.80;;
37847;SDS011;23688;33.130;-117.188;2024-01-11T05:20:40;11.63;;;2.60;;
37847;SDS011;23688;33.130;-117.188;2024-01-11T05:23:08;16.13;;;3.55;;
37847;SDS011;23688;33.130;-117.188;2024-01-11T05:25:35;17.60;;;4.25;;
37847;SDS011;23688;33.130;-117.188;2024-01-11T05:28:01;14.77;;;2.80;;
37847;SDS011;23688;33.130;-117.188;2024-01-11T05:30:29;10.93;;;2.28;;
37847;SDS011;23688;33.130;-117.188;2024-01-11T05:32:55;16.05;;;4.13;;
37847;SDS011;23688;33.130;-117.188;2024-01-11T05:35:22;16.23;;;2.83;;
37847;SDS011;23688;33.130;-117.188;2024-01-11T05:37:53;18.88;;;3.95;;
37847;SDS011;23688;33.130;-117.188;2024-01-11T05:40:22;17.60;;;3.80;;
37847;SDS011;23688;33.130;-117.188;2024-01-11T05:42:49;15.57;;;3.67;;
37847;SDS011;23688;33.130;-117.188;2024-01-11T05:45:15;21.33;;;3.50;;
37847;SDS011;23688;33.130;-117.188;2024-01-11T05:47:42;17.83;;;2.80;;
37847;SDS011;23688;33.130;-117.188;2024-01-11T05:50:09;16.58;;;3.30;;
37847;SDS011;23688;33.130;-117.188;2024-01-11T05:52:37;14.37;;;3.87;;
37847;SDS011;23688;33.130;-117.188;2024-01-11T05:55:04;21.02;;;4.05;;
37847;SDS011;23688;33.130;-117.188;2024-01-11T05:57:30;14.20;;;3.08;;
37847;SDS011;23688;33.130;-117.188;2024-01-11T05:59:58;13.03;;;2.97;;
37847;SDS011;23688;33.130;-117.188;2024-01-11T06:02:24;16.30;;;3.35;;
37847;SDS011;23688;33.130;-117.188;2024-01-11T06:04:51;18.95;;;4.25;;
37847;SDS011;23688;33.130;-117.188;2024-01-11T06:07:17;14.60;;;3.55;;
37847;SDS011;23688;33.130;-117.188;2024-01-11T06:09:44;19.60;;;4.10;;
37847;SDS011;23688;33.130;-117.188;2024-01-11T06:12:10;23.70;;;3.50;;
37847;SDS011;23688;33.130;-117.188;2024-01-11T06:14:36;18.38;;;4.22;;
37847;SDS011;23688;33.130;-117.188;2024-01-11T06:17:03;16.40;;;3.85;;
37847;SDS011;23688;33.130;-117.188;2024-01-11T06:19:29;19.48;;;2.90;;
37847;SDS011;23688;33.130;-117.188;2024-01-11T06:21:55;9.20;;;2.97;;
37847;SDS011;23688;33.130;-117.188;2024-01-11T06:24:24;13.48;;;3.88;;
37847;SDS011;23688;33.130;-117.188;2024-01-11T06:26:50;18.35;;;4.00;;
37847;SDS011;23688;33.130;-117.188;2024-01-11T06:29:17;23.60;;;3.83;;
37847;SDS011;23688;33.130;-117.188;2024-01-11T06:31:43;12.40;;;3.78;;
37847;SDS011;23688;33.130;-117.188;2024-01-11T06:34:09;11.98;;;3.13;;
37847;SDS011;23688;33.130;-117.188;2024-01-11T06:36:36;21.10;;;4.30;;
37847;SDS011;23688;33.130;-117.188;2024-01-11T06:39:02;18.83;;;4.55;;
37847;SDS011;23688;33.130;-117.188;2024-01-11T06:41:29;16.90;;;4.30;;
37847;SDS011;23688;33.130;-117.188;2024-01-11T06:43:55;16.88;;;4.80;;
37847;SDS011;23688;33.130;-117.188;2024-01-11T06:46:22;28.05;;;5.82;;
37847;SDS011;23688;33.130;-117.188;2024-01-11T06:48:49;17.25;;;6.00;;
37847;SDS011;23688;33.130;-117.188;2024-01-11T06:51:15;23.00;;;5.20;;
37847;SDS011;23688;33.130;-117.188;2024-01-11T06:53:41;14.38;;;4.47;;
37847;SDS011;23688;33.130;-117.188;2024-01-11T06:56:14;22.48;;;5.35;;
37847;SDS011;23688;33.130;-117.188;2024-01-11T06:58:42;18.98;;;5.22;;
37847;SDS011;23688;33.130;-117.188;2024-01-11T07:01:09;18.33;;;4.97;;
37847;SDS011;23688;33.130;-117.188;2024-01-11T07:03:36;19.48;;;5.60;;
37847;SDS011;23688;33.130;-117.188;2024-01-11T07:06:03;21.02;;;3.63;;
37847;SDS011;23688;33.130;-117.188;2024-01-11T07:08:29;29.13;;;3.60;;
37847;SDS011;23688;33.130;-117.188;2024-01-11T07:10:58;12.98;;;3.80;;
37847;SDS011;23688;33.130;-117.188;2024-01-11T07:13:26;23.75;;;5.45;;
37847;SDS011;23688;33.130;-117.188;2024-01-11T07:15:52;17.88;;;6.45;;
37847;SDS011;23688;33.130;-117.188;2024-01-11T07:18:18;20.42;;;7.07;;
37847;SDS011;23688;33.130;-117.188;2024-01-11T07:20:45;22.83;;;6.40;;
37847;SDS011;23688;33.130;-117.188;2024-01-11T07:23:11;20.98;;;6.32;;
37847;SDS011;23688;33.130;-117.188;2024-01-11T07:25:37;22.70;;;6.82;;
37847;SDS011;23688;33.130;-117.188;2024-01-11T07:28:04;22.55;;;5.00;;
37847;SDS011;23688;33.130;-117.188;2024-01-11T07:30:31;16.83;;;5.15;;
37847;SDS011;23688;33.130;-117.188;2024-01-11T07:32:57;15.40;;;7.38;;
37847;SDS011;23688;33.130;-117.188;2024-01-11T07:35:23;14.60;;;7.25;;
37847;SDS011;23688;33.130;-117.188;2024-01-11T07:37:50;24.92;;;8.48;;
37847;SDS011;23688;33.130;-117.188;2024-01-11T07:40:16;20.05;;;7.55;;
37847;SDS011;23688;33.130;-117.188;2024-01-11T07:42:43;20.02;;;7.90;;
37847;SDS011;23688;33.130;-117.188;2024-01-11T07:45:09;21.05;;;7.25;;
37847;SDS011;23688;33.130;-117.188;2024-01-11T07:47:36;22.67;;;7.43;;
37847;SDS011;23688;33.130;-117.188;2024-01-11T07:50:08;24.25;;;8.82;;
37847;SDS011;23688;33.130;-117.188;2024-01-11T07:52:38;19.30;;;8.95;;
37847;SDS011;23688;33.130;-117.188;2024-01-11T07:55:08;23.52;;;7.40;;
37847;SDS011;23688;33.130;-117.188;2024-01-11T07:57:37;16.08;;;6.82;;
37847;SDS011;23688;33.130;-117.188;2024-01-11T08:00:09;23.38;;;5.72;;
37847;SDS011;23688;33.130;-117.188;2024-01-11T08:02:44;27.55;;;5.18;;
37847;SDS011;23688;33.130;-117.188;2024-01-11T08:05:11;22.90;;;4.57;;
37847;SDS011;23688;33.130;-117.188;2024-01-11T08:07:37;25.85;;;4.40;;
37847;SDS011;23688;33.130;-117.188;2024-01-11T08:10:04;16.45;;;3.80;;
37847;SDS011;23688;33.130;-117.188;2024-01-11T08:12:31;13.75;;;3.92;;
37847;SDS011;23688;33.130;-117.188;2024-01-11T08:14:58;24.90;;;6.40;;
37847;SDS011;23688;33.130;-117.188;2024-01-11T08:17:24;21.83;;;5.03;;
37847;SDS011;23688;33.130;-117.188;2024-01-11T08:19:50;24.73;;;4.82;;
37847;SDS011;23688;33.130;-117.188;2024-01-11T08:22:17;18.88;;;4.22;;
37847;SDS011;23688;33.130;-117.188;2024-01-11T08:24:43;18.23;;;5.88;;
37847;SDS011;23688;33.130;-117.188;2024-01-11T08:27:09;18.27;;;5.50;;
37847;SDS011;23688;33.130;-117.188;2024-01-11T08:29:36;22.85;;;6.82;;
37847;SDS011;23688;33.130;-117.188;2024-01-11T08:32:02;18.90;;;7.00;;
37847;SDS011;23688;33.130;-117.188;2024-01-11T08:34:32;31.05;;;7.90;;
37847;SDS011;23688;33.130;-117.188;2024-01-11T08:36:58;25.52;;;8.43;;
37847;SDS011;23688;33.130;-117.188;2024-01-11T08:39:24;21.55;;;8.30;;
37847;SDS011;23688;33.130;-117.188;2024-01-11T08:41:51;21.05;;;8.07;;
37847;SDS011;23688;33.130;-117.188;2024-01-11T08:44:18;27.92;;;7.50;;
37847;SDS011;23688;33.130;-117.188;2024-01-11T08:46:44;17.30;;;6.20;;
37847;SDS011;23688;33.130;-117.188;2024-01-11T08:49:10;36.35;;;7.93;;
37847;SDS011;23688;33.130;-117.188;2024-01-11T08:51:36;25.35;;;7.82;;
37847;SDS011;23688;33.130;-117.188;2024-01-11T08:54:03;27.20;;;8.00;;
37847;SDS011;23688;33.130;-117.188;2024-01-11T08:56:32;20.77;;;6.57;;
37847;SDS011;23688;33.130;-117.188;2024-01-11T08:58:59;22.88;;;5.97;;
37847;SDS011;23688;33.130;-117.188;2024-01-11T09:01:26;19.98;;;4.93;;
37847;SDS011;23688;33.130;-117.188;2024-01-11T09:03:52;18.63;;;4.20;;
37847;SDS011;23688;33.130;-117.188;2024-01-11T09:06:18;21.77;;;3.90;;
37847;SDS011;23688;33.130;-117.188;2024-01-11T09:08:45;13.73;;;2.30;;
37847;SDS011;23688;33.130;-117.188;2024-01-11T09:11:11;18.80;;;2.83;;
37847;SDS011;23688;33.130;-117.188;2024-01-11T09:13:37;14.20;;;2.50;;
37847;SDS011;23688;33.130;-117.188;2024-01-11T09:16:05;18.43;;;2.00;;
37847;SDS011;23688;33.130;-117.188;2024-01-11T09:18:32;11.95;;;2.17;;
37847;SDS011;23688;33.130;-117.188;2024-01-11T09:20:58;23.15;;;3.50;;
37847;SDS011;23688;33.130;-117.188;2024-01-11T09:23:24;16.92;;;2.22;;
37847;SDS011;23688;33.130;-117.188;2024-01-11T09:25:51;18.05;;;2.88;;
37847;SDS011;23688;33.130;-117.188;2024-01-11T09:28:17;19.73;;;2.95;;
37847;SDS011;23688;33.130;-117.188;2024-01-11T09:30:44;16.60;;;3.45;;
37847;SDS011;23688;33.130;-117.188;2024-01-11T09:33:10;27.45;;;3.25;;
37847;SDS011;23688;33.130;-117.188;2024-01-11T09:35:36;29.65;;;3.80;;
37847;SDS011;23688;33.130;-117.188;2024-01-11T09:38:02;18.58;;;3.20;;
37847;SDS011;23688;33.130;-117.188;2024-01-11T09:40:29;21.35;;;3.22;;
37847;SDS011;23688;33.130;-117.188;2024-01-11T09:42:55;21.20;;;5.20;;
37847;SDS011;23688;33.130;-117.188;2024-01-11T09:45:22;37.35;;;4.18;;
37847;SDS011;23688;33.130;-117.188;2024-01-11T09:47:50;32.17;;;4.13;;
37847;SDS011;23688;33.130;-117.188;2024-01-11T09:50:18;30.00;;;3.65;;
37847;SDS011;23688;33.130;-117.188;2024-01-11T09:52:48;25.23;;;4.75;;
37847;SDS011;23688;33.130;-117.188;2024-01-11T09:55:15;16.48;;;3.42;;
37847;SDS011;23688;33.130;-117.188;2024-01-11T09:57:46;21.23;;;3.20;;
37847;SDS011;23688;33.130;-117.188;2024-01-11T10:00:16;29.25;;;4.20;;
37847;SDS011;23688;33.130;-117.188;2024-01-11T10:02:45;25.58;;;4.18;;
37847;SDS011;23688;33.130;-117.188;2024-01-11T10:05:12;32.90;;;3.75;;
37847;SDS011;23688;33.130;-117.188;2024-01-11T10:07:41;15.15;;;3.10;;
37847;SDS011;23688;33.130;-117.188;2024-01-11T10:10:08;16.63;;;3.75;;
37847;SDS011;23688;33.130;-117.188;2024-01-11T10:12:38;19.08;;;2.58;;
37847;SDS011;23688;33.130;-117.188;2024-01-11T10:15:08;28.30;;;3.67;;
37847;SDS011;23688;33.130;-117.188;2024-01-11T10:17:35;60.03;;;4.57;;
37847;SDS011;23688;33.130;-117.188;2024-01-11T10:20:06;25.15;;;3.35;;
37847;SDS011;23688;33.130;-117.188;2024-01-11T10:22:36;33.95;;;4.32;;
37847;SDS011;23688;33.130;-117.188;2024-01-11T10:25:12;38.10;;;4.05;;
37847;SDS011;23688;33.130;-117.188;2024-01-11T10:27:40;34.03;;;4.07;;
37847;SDS011;23688;33.130;-117.188;2024-01-11T10:30:10;29.80;;;3.50;;
37847;SDS011;23688;33.130;-117.188;2024-01-11T10:32:45;25.05;;;3.83;;
37847;SDS011;23688;33.130;-117.188;2024-01-11T10:35:12;24.67;;;3.42;;
37847;SDS011;23688;33.130;-117.188;2024-01-11T10:37:38;35.30;;;4.82;;
37847;SDS011;23688;33.130;-117.188;2024-01-11T10:40:05;24.48;;;3.05;;
37847;SDS011;23688;33.130;-117.188;2024-01-11T10:42:39;30.65;;;3.40;;
37847;SDS011;23688;33.130;-117.188;2024-01-11T10:45:15;28.50;;;4.18;;
37847;SDS011;23688;33.130;-117.188;2024-01-11T10:50:24;30.00;;;3.88;;
37847;SDS011;23688;33.130;-117.188;2024-01-11T10:56:08;23.90;;;4.50;;
37847;SDS011;23688;33.130;-117.188;2024-01-11T10:58:42;19.20;;;3.03;;
37847;SDS011;23688;33.130;-117.188;2024-01-11T11:01:12;19.73;;;2.92;;
37847;SDS011;23688;33.130;-117.188;2024-01-11T11:03:39;20.30;;;2.83;;
37847;SDS011;23688;33.130;-117.188;2024-01-11T11:06:08;29.92;;;3.90;;
37847;SDS011;23688;33.130;-117.188;2024-01-11T11:08:36;20.45;;;3.30;;
37847;SDS011;23688;33.130;-117.188;2024-01-11T11:11:03;17.08;;;3.20;;
37847;SDS011;23688;33.130;-117.188;2024-01-11T11:13:34;19.60;;;2.88;;
37847;SDS011;23688;33.130;-117.188;2024-01-11T11:16:00;17.77;;;3.13;;
37847;SDS011;23688;33.130;-117.188;2024-01-11T11:18:29;15.75;;;2.92;;
37847;SDS011;23688;33.130;-117.188;2024-01-11T11:20:57;8.48;;;2.22;;
37847;SDS011;23688;33.130;-117.188;2024-01-11T11:23:23;14.57;;;3.20;;
37847;SDS011;23688;33.130;-117.188;2024-01-11T11:25:49;21.10;;;3.42;;
37847;SDS011;23688;33.130;-117.188;2024-01-11T11:28:23;18.38;;;3.53;;
37847;SDS011;23688;33.130;-117.188;2024-01-11T11:30:51;13.00;;;3.08;;
37847;SDS011;23688;33.130;-117.188;2024-01-11T11:33:19;16.95;;;2.75;;
37847;SDS011;23688;33.130;-117.188;2024-01-11T11:35:47;17.35;;;2.55;;
37847;SDS011;23688;33.130;-117.188;2024-01-11T11:38:18;15.65;;;3.08;;
37847;SDS011;23688;33.130;-117.188;2024-01-11T11:40:46;11.77;;;2.85;;
37847;SDS011;23688;33.130;-117.188;2024-01-11T11:43:17;18.27;;;3.23;;
37847;SDS011;23688;33.130;-117.188;2024-01-11T11:45:48;11.50;;;2.90;;
37847;SDS011;23688;33.130;-117.188;2024-01-11T11:51:07;14.40;;;2.22;;
37847;SDS011;23688;33.130;-117.188;2024-01-11T11:53:38;11.32;;;1.90;;
37847;SDS011;23688;33.130;-117.188;2024-01-11T11:56:05;14.27;;;2.17;;
37847;SDS011;23688;33.130;-117.188;2024-01-11T12:01:01;15.10;;;2.33;;
37847;SDS011;23688;33.130;-117.188;2024-01-11T12:03:30;7.40;;;2.22;;
37847;SDS011;23688;33.130;-117.188;2024-01-11T12:06:04;15.15;;;2.05;;
37847;SDS011;23688;33.130;-117.188;2024-01-11T12:08:32;13.27;;;2.20;;
37847;SDS011;23688;33.130;-117.188;2024-01-11T12:10:58;16.85;;;2.67;;
37847;SDS011;23688;33.130;-117.188;2024-01-11T12:13:25;15.68;;;2.00;;
37847;SDS011;23688;33.130;-117.188;2024-01-11T12:15:52;11.98;;;2.03;;
37847;SDS011;23688;33.130;-117.188;2024-01-11T12:18:18;11.07;;;2.75;;
37847;SDS011;23688;33.130;-117.188;2024-01-11T12:20:45;13.73;;;2.17;;
37847;SDS011;23688;33.130;-117.188;2024-01-11T12:23:11;15.55;;;3.33;;
37847;SDS011;23688;33.130;-117.188;2024-01-11T12:25:42;14.73;;;3.08;;
37847;SDS011;23688;33.130;-117.188;2024-01-11T12:28:08;10.82;;;2.10;;
37847;SDS011;23688;33.130;-117.188;2024-01-11T12:30:35;11.60;;;1.92;;
37847;SDS011;23688;33.130;-117.188;2024-01-11T12:33:02;11.60;;;2.10;;
37847;SDS011;23688;33.130;-117.188;2024-01-11T12:35:29;18.42;;;2.70;;
37847;SDS011;23688;33.130;-117.188;2024-01-11T12:38:14;14.70;;;1.88;;
37847;SDS011;23688;33.130;-117.188;2024-01-11T12:40:41;9.88;;;1.70;;
37847;SDS011;23688;33.130;-117.188;2024-01-11T12:43:07;15.30;;;2.67;;
37847;SDS011;23688;33.130;-117.188;2024-01-11T12:45:36;10.45;;;2.53;;
37847;SDS011;23688;33.130;-117.188;2024-01-11T12:48:06;17.73;;;2.22;;
37847;SDS011;23688;33.130;-117.188;2024-01-11T12:50:34;14.73;;;2.63;;
37847;SDS011;23688;33.130;-117.188;2024-01-11T12:53:07;12.63;;;2.30;;
37847;SDS011;23688;33.130;-117.188;2024-01-11T12:58:13;14.40;;;2.53;;
37847;SDS011;23688;33.130;-117.188;2024-01-11T13:00:44;13.93;;;2.17;;
37847;SDS011;23688;33.130;-117.188;2024-01-11T13:03:11;18.05;;;3.40;;
37847;SDS011;23688;33.130;-117.188;2024-01-11T13:05:37;10.63;;;1.95;;
37847;SDS011;23688;33.130;-117.188;2024-01-11T13:08:08;13.40;;;2.47;;
37847;SDS011;23688;33.130;-117.188;2024-01-11T13:10:35;16.00;;;3.58;;
37847;SDS011;23688;33.130;-117.188;2024-01-11T13:13:02;18.67;;;2.55;;
37847;SDS011;23688;33.130;-117.188;2024-01-11T13:15:29;21.48;;;3.72;;
37847;SDS011;23688;33.130;-117.188;2024-01-11T13:17:59;15.88;;;3.28;;
37847;SDS011;23688;33.130;-117.188;2024-01-11T13:20:28;22.13;;;3.80;;
37847;SDS011;23688;33.130;-117.188;2024-01-11T13:25:46;15.90;;;2.30;;
37847;SDS011;23688;33.130;-117.188;2024-01-11T13:28:15;22.95;;;2.38;;
37847;SDS011;23688;33.130;-117.188;2024-01-11T13:30:42;16.42;;;2.92;;
37847;SDS011;23688;33.130;-117.188;2024-01-11T13:33:10;19.77;;;2.72;;
37847;SDS011;23688;33.130;-117.188;2024-01-11T13:35:37;14.73;;;3.42;;
37847;SDS011;23688;33.130;-117.188;2024-01-11T13:38:05;22.08;;;3.95;;
37847;SDS011;23688;33.130;-117.188;2024-01-11T13:40:32;26.70;;;2.80;;
37847;SDS011;23688;33.130;-117.188;2024-01-11T13:42:58;16.42;;;2.75;;
37847;SDS011;23688;33.130;-117.188;2024-01-11T13:45:25;17.98;;;2.72;;
37847;SDS011;23688;33.130;-117.188;2024-01-11T13:47:52;27.90;;;3.63;;
37847;SDS011;23688;33.130;-117.188;2024-01-11T13:50:22;22.48;;;2.83;;
37847;SDS011;23688;33.130;-117.188;2024-01-11T13:52:53;21.10;;;3.28;;
37847;SDS011;23688;33.130;-117.188;2024-01-11T13:55:20;18.10;;;2.25;;
37847;SDS011;23688;33.130;-117.188;2024-01-11T13:57:47;15.20;;;3.75;;
37847;SDS011;23688;33.130;-117.188;2024-01-11T14:00:18;13.20;;;2.70;;
37847;SDS011;23688;33.130;-117.188;2024-01-11T14:02:44;17.58;;;3.72;;
37847;SDS011;23688;33.130;-117.188;2024-01-11T14:05:14;21.02;;;3.55;;
37847;SDS011;23688;33.130;-117.188;2024-01-11T14:10:13;21.33;;;3.92;;
37847;SDS011;23688;33.130;-117.188;2024-01-11T14:12:40;36.83;;;4.45;;
37847;SDS011;23688;33.130;-117.188;2024-01-11T14:15:08;20.50;;;3.80;;
37847;SDS011;23688;33.130;-117.188;2024-01-11T14:17:38;28.83;;;3.88;;
37847;SDS011;23688;33.130;-117.188;2024-01-11T14:20:10;24.17;;;3.28;;
37847;SDS011;23688;33.130;-117.188;2024-01-11T14:22:40;20.85;;;4.25;;